Time;durP1;ratioP1;P1;durP2;ratioP2;P2;SDS_P1;SDS_P2;PMS_P1;PMS_P2;Temp;Humidity;BMP_temperature;BMP_pressure;BME280_temperature;BME280_humidity;BME280_pressure;Samples;Min_cycle;Max_cycle;Signal;HPM_P1;HPM_P2
2023/11/08 00:00:26;;;;;;;2.97;2.25;;;6.50;99.90;;;;;;5012527;28;20033;-81
2023/11/08 00:02:52;;;;;;;5.68;2.47;;;6.50;99.90;;;;;;5012809;28;20061;-80
2023/11/08 00:05:18;;;;;;;5.15;2.47;;;6.50;99.90;;;;;;5016410;28;20033;-81
2023/11/08 00:07:43;;;;;;;4.38;2.53;;;6.50;99.90;;;;;;5014735;28;20068;-80
2023/11/08 00:10:12;;;;;;;2.15;1.95;;;6.50;99.90;;;;;;5010670;28;20026;-79
2023/11/08 00:12:39;;;;;;;7.78;2.47;;;6.50;99.90;;;;;;5012978;28;20030;-81
2023/11/08 00:15:08;;;;;;;7.45;2.33;;;6.50;99.90;;;;;;5019544;28;20479;-79
2023/11/08 00:17:35;;;;;;;4.82;2.05;;;6.50;99.90;;;;;;5018314;28;20201;-79
2023/11/08 00:20:02;;;;;;;2.70;1.80;;;6.50;99.90;;;;;;5011076;28;20033;-80
2023/11/08 00:22:28;;;;;;;5.05;2.13;;;6.50;99.90;;;;;;5014856;28;20033;-81
2023/11/08 00:24:53;;;;;;;3.10;2.10;;;6.50;99.90;;;;;;5012275;28;20397;-79
2023/11/08 00:27:20;;;;;;;2.90;2.47;;;6.50;99.90;;;;;;5006250;28;20124;-79
2023/11/08 00:29:48;;;;;;;6.20;2.40;;;6.50;99.90;;;;;;5015235;28;20502;-79
2023/11/08 00:32:21;;;;;;;4.93;1.80;;;6.50;99.90;;;;;;5011832;28;20037;-79
2023/11/08 00:34:50;;;;;;;5.22;3.17;;;6.50;99.90;;;;;;5015881;28;20348;-79
2023/11/08 00:37:18;;;;;;;3.75;2.10;;;6.40;99.90;;;;;;5012692;28;20510;-79
2023/11/08 00:39:44;;;;;;;6.10;2.05;;;6.40;99.90;;;;;;5013528;28;20029;-79
2023/11/08 00:42:10;;;;;;;4.85;2.38;;;6.40;99.90;;;;;;5013428;28;20026;-81
2023/11/08 00:44:36;;;;;;;3.70;1.88;;;6.50;99.90;;;;;;5020495;28;20026;-79
2023/11/08 00:47:02;;;;;;;4.60;1.80;;;6.50;99.90;;;;;;5011653;28;20037;-79
2023/11/08 00:49:46;;;;;;;5.32;2.17;;;6.40;99.90;;;;;;5020013;28;20045;-80
2023/11/08 00:52:11;;;;;;;5.15;1.40;;;6.50;99.90;;;;;;5015931;28;20038;-80
2023/11/08 00:54:39;;;;;;;6.07;1.85;;;6.50;99.90;;;;;;5018868;28;20038;-79
2023/11/08 00:57:08;;;;;;;3.95;1.63;;;6.50;99.90;;;;;;5015769;28;20038;-80
2023/11/08 00:59:34;;;;;;;3.60;1.27;;;6.50;99.90;;;;;;5012433;28;20061;-80
2023/11/08 01:02:00;;;;;;;2.83;1.30;;;6.40;99.90;;;;;;5010797;28;20034;-80
2023/11/08 01:04:26;;;;;;;7.68;1.30;;;6.50;99.90;;;;;;5012290;28;20048;-79
2023/11/08 01:06:52;;;;;;;9.95;1.60;;;6.50;99.90;;;;;;5016501;28;20034;-80
2023/11/08 01:09:20;;;;;;;2.65;1.20;;;6.50;99.90;;;;;;5014070;28;20033;-80
2023/11/08 01:11:47;;;;;;;2.25;1.20;;;6.50;99.90;;;;;;5012643;28;20033;-79
2023/11/08 01:14:12;;;;;;;4.13;1.30;;;6.50;99.90;;;;;;5014758;28;20120;-80
2023/11/08 01:16:39;;;;;;;3.38;1.20;;;6.50;99.90;;;;;;5015023;28;20107;-78
2023/11/08 01:19:06;;;;;;;2.70;1.30;;;6.50;99.90;;;;;;5007289;28;20029;-79
2023/11/08 01:21:32;;;;;;;3.15;1.35;;;6.50;99.90;;;;;;5003073;28;20034;-79
2023/11/08 01:24:00;;;;;;;5.82;1.40;;;6.50;99.90;;;;;;5016365;28;20057;-79
2023/11/08 01:26:25;;;;;;;1.67;1.05;;;6.50;99.90;;;;;;5008955;28;20038;-79
2023/11/08 01:28:51;;;;;;;3.20;1.20;;;6.40;99.90;;;;;;5010986;28;20450;-79
2023/11/08 01:31:17;;;;;;;3.08;1.15;;;6.40;99.90;;;;;;5014073;28;20517;-79
2023/11/08 01:33:43;;;;;;;4.60;1.20;;;6.40;99.90;;;;;;5012307;28;20030;-80
2023/11/08 01:36:09;;;;;;;4.93;0.98;;;6.40;99.90;;;;;;5012773;28;20042;-79
2023/11/08 01:38:35;;;;;;;3.17;1.15;;;6.40;99.90;;;;;;5014427;28;20505;-78
2023/11/08 01:41:02;;;;;;;4.78;1.42;;;6.40;99.90;;;;;;5015492;28;20037;-78
2023/11/08 01:43:32;;;;;;;4.53;1.20;;;6.40;99.90;;;;;;5012244;28;20042;-79
2023/11/08 01:46:14;;;;;;;5.68;1.00;;;6.40;99.90;;;;;;5018582;28;20105;-78
2023/11/08 01:48:41;;;;;;;2.50;0.90;;;6.30;99.90;;;;;;5015422;28;20028;-78
2023/11/08 01:51:09;;;;;;;2.97;1.05;;;6.40;99.90;;;;;;5025341;28;20029;-77
2023/11/08 01:53:40;;;;;;;5.43;1.40;;;6.40;99.90;;;;;;5017407;28;20417;-78
2023/11/08 01:56:12;;;;;;;10.88;1.20;;;6.40;99.90;;;;;;5014555;28;20030;-78
2023/11/08 01:58:40;;;;;;;3.58;0.80;;;6.40;99.90;;;;;;5010514;28;20048;-78
2023/11/08 02:01:08;;;;;;;1.77;0.75;;;6.40;99.90;;;;;;5014027;28;20030;-78
2023/11/08 02:03:37;;;;;;;6.35;1.15;;;6.40;99.90;;;;;;5013787;28;20083;-79
2023/11/08 02:06:03;;;;;;;4.47;1.42;;;6.40;99.90;;;;;;5012188;28;20045;-78
2023/11/08 02:08:30;;;;;;;4.28;1.08;;;6.40;99.90;;;;;;5012105;28;20132;-79
2023/11/08 02:11:14;;;;;;;2.47;0.88;;;6.40;99.90;;;;;;5015650;28;20127;-79
2023/11/08 02:13:41;;;;;;;6.72;0.90;;;6.30;99.90;;;;;;5012506;28;20514;-79
2023/11/08 02:16:07;;;;;;;4.80;1.08;;;6.30;99.90;;;;;;5008904;28;20037;-78
2023/11/08 02:18:32;;;;;;;3.80;0.90;;;6.30;99.90;;;;;;5011605;28;20040;-77
2023/11/08 02:21:01;;;;;;;3.17;0.98;;;6.30;99.90;;;;;;5013350;28;20025;-78
2023/11/08 02:23:28;;;;;;;3.85;0.80;;;6.30;99.90;;;;;;5012423;28;20125;-79
2023/11/08 02:25:54;;;;;;;3.50;1.08;;;6.30;99.90;;;;;;5010544;28;20046;-79
2023/11/08 02:28:21;;;;;;;1.98;1.10;;;6.20;99.90;;;;;;5012223;28;20080;-78
2023/11/08 02:30:53;;;;;;;6.53;1.50;;;6.20;99.90;;;;;;5011505;28;20026;-78
2023/11/08 02:33:29;;;;;;;4.55;1.30;;;6.20;99.90;;;;;;5012547;28;20410;-79
2023/11/08 02:35:57;;;;;;;3.22;1.08;;;6.20;99.90;;;;;;5012397;28;20038;-80
2023/11/08 02:38:23;;;;;;;5.75;1.00;;;6.20;99.90;;;;;;4994725;28;20042;-78
2023/11/08 02:40:50;;;;;;;3.17;0.82;;;6.10;99.90;;;;;;5013971;28;20442;-79
2023/11/08 02:43:16;;;;;;;6.43;1.17;;;6.10;99.90;;;;;;5011151;28;20121;-78
2023/11/08 02:45:42;;;;;;;3.65;1.00;;;6.10;99.90;;;;;;5015132;28;20505;-78
2023/11/08 02:48:08;;;;;;;6.82;1.45;;;6.10;99.90;;;;;;5011486;28;20057;-78
2023/11/08 02:50:38;;;;;;;2.20;1.00;;;6.10;99.90;;;;;;5014181;28;20086;-79
2023/11/08 02:53:05;;;;;;;4.95;1.00;;;6.00;99.90;;;;;;5012403;28;20049;-80
2023/11/08 02:55:32;;;;;;;4.57;1.17;;;6.00;99.90;;;;;;5015878;28;20106;-80
2023/11/08 02:57:58;;;;;;;4.40;1.00;;;6.00;99.90;;;;;;5013222;28;21286;-78
2023/11/08 03:00:24;;;;;;;3.20;1.00;;;6.00;99.90;;;;;;5018290;28;20084;-79
2023/11/08 03:02:51;;;;;;;5.07;1.17;;;6.00;99.90;;;;;;5019605;28;20038;-78
2023/11/08 03:05:21;;;;;;;4.15;1.10;;;6.00;99.90;;;;;;5017165;28;20038;-79
2023/11/08 03:07:54;;;;;;;2.95;1.10;;;6.00;99.90;;;;;;5016709;28;20037;-79
2023/11/08 03:10:21;;;;;;;2.13;0.90;;;6.00;99.90;;;;;;5017405;28;20091;-78
2023/11/08 03:12:50;;;;;;;3.08;1.45;;;6.10;99.90;;;;;;5013387;28;20033;-80
2023/11/08 03:15:17;;;;;;;1.85;1.20;;;6.00;99.90;;;;;;5016594;28;20034;-79
2023/11/08 03:17:44;;;;;;;5.18;1.35;;;6.00;99.90;;;;;;5013414;28;20029;-80
2023/11/08 03:20:14;;;;;;;6.45;1.27;;;6.00;99.90;;;;;;5012544;28;20042;-80
2023/11/08 03:22:40;;;;;;;5.15;1.30;;;6.00;99.90;;;;;;5011593;28;20037;-82
2023/11/08 03:25:11;;;;;;;3.45;1.25;;;6.00;99.90;;;;;;5014457;28;20035;-81
2023/11/08 03:27:39;;;;;;;4.72;1.38;;;6.00;99.90;;;;;;5015318;28;20033;-82
2023/11/08 03:30:06;;;;;;;5.07;1.55;;;6.00;99.90;;;;;;5012489;28;20073;-81
2023/11/08 03:32:33;;;;;;;7.32;1.48;;;6.00;99.90;;;;;;5001052;28;20080;-82
2023/11/08 03:34:59;;;;;;;4.13;1.13;;;5.90;99.90;;;;;;5010607;28;20030;-81
2023/11/08 03:37:24;;;;;;;4.95;1.23;;;5.90;99.90;;;;;;5011833;28;20080;-81
2023/11/08 03:39:51;;;;;;;2.40;1.30;;;5.90;99.90;;;;;;4999751;28;20415;-81
2023/11/08 03:42:17;;;;;;;4.45;1.30;;;5.80;99.90;;;;;;5001268;28;20114;-81
2023/11/08 03:44:43;;;;;;;5.78;1.40;;;5.90;99.90;;;;;;5017338;28;20445;-83
2023/11/08 03:47:10;;;;;;;5.25;1.40;;;5.80;99.90;;;;;;5017407;28;20113;-81
2023/11/08 03:49:36;;;;;;;5.32;1.50;;;5.80;99.90;;;;;;5013585;28;20168;-81
2023/11/08 03:52:02;;;;;;;3.95;1.52;;;5.80;99.90;;;;;;5016065;28;20524;-83
2023/11/08 03:54:28;;;;;;;3.45;1.65;;;5.80;99.90;;;;;;5011479;28;20037;-79
2023/11/08 03:56:54;;;;;;;7.47;1.60;;;5.80;99.90;;;;;;5015243;28;20685;-81
2023/11/08 03:59:20;;;;;;;3.25;1.38;;;5.80;99.90;;;;;;5012488;28;20044;-83
2023/11/08 04:01:46;;;;;;;6.80;1.33;;;5.80;99.90;;;;;;5008982;28;20120;-80
2023/11/08 04:04:12;;;;;;;6.10;1.52;;;5.80;99.90;;;;;;5013629;28;20521;-80
2023/11/08 04:06:38;;;;;;;4.53;1.67;;;5.80;99.90;;;;;;5011528;28;20034;-81
2023/11/08 04:09:04;;;;;;;3.28;2.00;;;5.80;99.90;;;;;;4993748;28;20093;-81
2023/11/08 04:11:30;;;;;;;4.65;1.38;;;5.80;99.90;;;;;;5014454;28;20109;-80
2023/11/08 04:13:56;;;;;;;2.85;1.27;;;5.80;99.90;;;;;;5012145;28;20026;-81
2023/11/08 04:16:22;;;;;;;4.55;1.65;;;5.80;99.90;;;;;;5018467;28;20034;-81
2023/11/08 04:18:49;;;;;;;4.55;1.70;;;5.80;99.90;;;;;;5010835;28;20038;-82
2023/11/08 04:21:15;;;;;;;3.10;1.50;;;5.80;99.90;;;;;;5016073;28;20041;-82
2023/11/08 04:23:41;;;;;;;7.45;1.70;;;5.80;99.90;;;;;;5014406;28;20390;-82
2023/11/08 04:26:07;;;;;;;3.95;1.60;;;5.80;99.90;;;;;;5012202;28;20037;-82
2023/11/08 04:28:33;;;;;;;3.55;1.30;;;5.80;99.90;;;;;;5007792;28;20542;-81
2023/11/08 04:31:00;;;;;;;3.80;1.63;;;5.80;99.90;;;;;;5011150;28;20096;-80
2023/11/08 04:33:26;;;;;;;3.92;1.33;;;5.80;99.90;;;;;;5006669;28;20041;-82
2023/11/08 04:35:53;;;;;;;5.50;1.75;;;5.80;99.90;;;;;;5010039;28;20048;-81
2023/11/08 04:38:19;;;;;;;3.88;1.58;;;5.90;99.90;;;;;;5013591;28;20530;-82
2023/11/08 04:40:45;;;;;;;12.73;1.98;;;5.80;99.90;;;;;;5013228;28;20037;-80
2023/11/08 04:43:11;;;;;;;6.82;1.48;;;5.80;99.90;;;;;;5012074;28;20034;-80
2023/11/08 04:45:37;;;;;;;4.95;1.70;;;5.80;99.90;;;;;;5008423;28;20061;-78
2023/11/08 04:48:04;;;;;;;2.42;1.48;;;5.80;99.90;;;;;;5010318;28;20026;-82
2023/11/08 04:50:30;;;;;;;3.20;1.50;;;5.80;99.90;;;;;;5011291;28;20116;-81
2023/11/08 04:52:56;;;;;;;2.60;1.27;;;5.80;99.90;;;;;;5011006;28;20030;-81
2023/11/08 04:55:21;;;;;;;6.97;1.90;;;5.70;99.90;;;;;;5009876;28;20037;-81
2023/11/08 04:57:47;;;;;;;7.03;1.70;;;5.70;99.90;;;;;;5011216;28;20038;-79
2023/11/08 05:00:14;;;;;;;3.97;1.40;;;5.70;99.90;;;;;;5014539;28;20022;-82
2023/11/08 05:02:41;;;;;;;5.97;1.70;;;5.80;99.90;;;;;;5010730;28;20026;-80
2023/11/08 05:05:09;;;;;;;9.00;1.25;;;5.70;99.90;;;;;;5011728;28;20398;-79
2023/11/08 05:07:35;;;;;;;2.45;1.23;;;5.70;99.90;;;;;;5012571;28;20714;-81
2023/11/08 05:10:02;;;;;;;5.13;1.42;;;5.80;99.90;;;;;;5008488;28;20030;-80
2023/11/08 05:12:28;;;;;;;10.52;1.45;;;5.70;99.90;;;;;;5009013;28;20503;-81
2023/11/08 05:14:54;;;;;;;4.45;1.40;;;5.70;99.90;;;;;;5004179;28;20057;-80
2023/11/08 05:17:20;;;;;;;5.22;1.30;;;5.80;99.90;;;;;;5009979;28;20045;-79
2023/11/08 05:19:46;;;;;;;4.97;1.10;;;5.70;99.90;;;;;;4997365;28;20030;-79
2023/11/08 05:22:12;;;;;;;2.42;1.25;;;5.80;99.90;;;;;;5011701;28;20038;-80
2023/11/08 05:24:39;;;;;;;5.70;1.30;;;5.70;99.90;;;;;;5014381;28;20482;-79
2023/11/08 05:27:05;;;;;;;5.00;1.15;;;5.80;99.90;;;;;;5013225;28;20494;-80
2023/11/08 05:29:33;;;;;;;3.15;1.25;;;5.80;99.90;;;;;;5013570;28;20088;-81
2023/11/08 05:32:00;;;;;;;3.03;0.98;;;5.70;99.90;;;;;;5011258;28;20026;-80
2023/11/08 05:34:26;;;;;;;2.05;0.90;;;5.80;99.90;;;;;;4996792;28;20514;-80
2023/11/08 05:36:52;;;;;;;5.40;1.45;;;5.80;99.90;;;;;;5010794;28;20054;-80
2023/11/08 05:39:22;;;;;;;3.35;1.30;;;5.80;99.90;;;;;;5016762;28;20044;-80
2023/11/08 05:41:51;;;;;;;4.75;1.30;;;5.80;99.90;;;;;;5012332;28;20037;-80
2023/11/08 05:44:17;;;;;;;7.90;1.30;;;5.80;99.90;;;;;;5013644;28;20092;-79
2023/11/08 05:46:43;;;;;;;5.05;1.30;;;5.80;99.90;;;;;;5014612;28;20053;-79
2023/11/08 05:49:09;;;;;;;5.20;1.63;;;5.90;99.90;;;;;;5009540;28;20038;-80
2023/11/08 05:51:34;;;;;;;2.50;0.98;;;5.90;99.90;;;;;;5005483;28;20065;-80
2023/11/08 05:54:01;;;;;;;4.03;1.10;;;5.90;99.90;;;;;;5009113;28;20064;-81
2023/11/08 05:56:27;;;;;;;6.03;1.05;;;5.90;99.90;;;;;;5007447;28;20021;-82
2023/11/08 05:58:52;;;;;;;3.53;0.93;;;5.90;99.90;;;;;;5008439;28;20034;-79
2023/11/08 06:01:22;;;;;;;4.85;1.27;;;5.80;99.90;;;;;;5003686;28;20555;-81
2023/11/08 06:03:47;;;;;;;3.28;1.25;;;5.90;99.90;;;;;;5013040;28;20042;-81
2023/11/08 06:06:14;;;;;;;3.35;1.10;;;5.80;99.90;;;;;;5008452;28;20056;-80
2023/11/08 06:08:40;;;;;;;4.50;1.42;;;5.90;99.90;;;;;;5014336;28;20025;-79
2023/11/08 06:11:06;;;;;;;3.67;1.35;;;5.80;99.90;;;;;;5007468;28;20037;-80
2023/11/08 06:13:35;;;;;;;3.90;1.20;;;5.90;99.90;;;;;;5010897;28;20030;-80
2023/11/08 06:16:01;;;;;;;5.30;1.63;;;5.90;99.90;;;;;;5012431;28;20049;-80
2023/11/08 06:18:30;;;;;;;4.13;1.42;;;5.90;99.90;;;;;;5007922;28;20057;-79
2023/11/08 06:20:56;;;;;;;5.18;1.38;;;5.90;99.90;;;;;;5016554;28;20034;-79
2023/11/08 06:23:22;;;;;;;4.57;1.15;;;5.90;99.90;;;;;;5015798;28;20049;-81
2023/11/08 06:25:48;;;;;;;2.80;1.23;;;5.90;99.90;;;;;;5014740;28;20034;-79
2023/11/08 06:28:15;;;;;;;4.82;2.20;;;5.90;99.90;;;;;;5020004;28;20084;-80
2023/11/08 06:30:41;;;;;;;6.70;1.33;;;5.90;99.90;;;;;;5016711;28;20029;-81
2023/11/08 06:33:07;;;;;;;2.10;1.40;;;5.90;99.90;;;;;;5018907;28;20026;-80
2023/11/08 06:35:35;;;;;;;3.03;1.50;;;5.90;99.90;;;;;;5017950;28;20454;-79
2023/11/08 06:38:01;;;;;;;3.05;1.17;;;5.90;99.90;;;;;;5017420;28;20026;-79
2023/11/08 06:40:27;;;;;;;4.60;1.40;;;5.90;99.90;;;;;;5016984;28;20482;-80
2023/11/08 06:42:52;;;;;;;5.50;1.35;;;5.90;99.90;;;;;;5015863;28;20073;-80
2023/11/08 06:45:18;;;;;;;6.63;1.45;;;5.90;99.90;;;;;;5010071;28;20057;-82
2023/11/08 06:47:44;;;;;;;2.13;1.20;;;5.90;99.90;;;;;;5014771;28;20034;-80
2023/11/08 06:50:10;;;;;;;3.28;1.00;;;5.90;99.90;;;;;;5016316;28;20513;-80
2023/11/08 06:52:37;;;;;;;6.30;1.30;;;5.90;99.90;;;;;;5016539;28;20034;-80
2023/11/08 06:55:06;;;;;;;2.92;1.48;;;5.90;99.90;;;;;;5013219;28;20589;-81
2023/11/08 06:57:32;;;;;;;2.90;1.20;;;6.00;99.90;;;;;;5014475;28;20613;-79
2023/11/08 06:59:59;;;;;;;6.15;1.63;;;6.00;99.90;;;;;;5001251;28;20045;-80
2023/11/08 07:02:26;;;;;;;11.10;1.83;;;6.00;99.90;;;;;;5010380;28;20542;-78
2023/11/08 07:04:52;;;;;;;4.03;1.23;;;6.00;99.90;;;;;;5009642;28;20030;-81
2023/11/08 07:07:18;;;;;;;2.20;1.38;;;6.00;99.90;;;;;;5016289;28;20036;-81
2023/11/08 07:09:50;;;;;;;5.85;1.70;;;6.00;99.90;;;;;;5018836;28;20017;-80
2023/11/08 07:12:16;;;;;;;2.92;1.48;;;6.10;99.90;;;;;;5013384;28;20596;-81
2023/11/08 07:14:42;;;;;;;2.38;1.33;;;6.00;99.90;;;;;;5016032;28;20029;-80
2023/11/08 07:17:08;;;;;;;4.05;1.67;;;6.00;99.90;;;;;;5016595;28;20029;-81
2023/11/08 07:19:34;;;;;;;2.33;1.52;;;6.10;99.90;;;;;;5017720;28;20030;-82
2023/11/08 07:22:00;;;;;;;2.95;1.67;;;6.10;99.90;;;;;;5011883;28;20040;-83
2023/11/08 07:24:25;;;;;;;4.75;1.83;;;6.10;99.90;;;;;;5012026;28;20038;-82
2023/11/08 07:26:51;;;;;;;6.35;2.05;;;6.10;99.90;;;;;;5012686;28;20061;-81
2023/11/08 07:29:17;;;;;;;2.35;1.60;;;6.10;99.90;;;;;;5014000;28;20256;-83
2023/11/08 07:31:43;;;;;;;4.55;1.73;;;6.10;99.90;;;;;;4997095;28;20036;-83
2023/11/08 07:34:09;;;;;;;2.20;1.75;;;6.10;99.90;;;;;;5014708;28;20026;-78
2023/11/08 07:36:39;;;;;;;6.10;2.20;;;6.10;99.90;;;;;;5006106;28;20067;-81
2023/11/08 07:39:06;;;;;;;3.95;1.80;;;6.10;99.90;;;;;;5000617;28;20074;-81
2023/11/08 07:41:33;;;;;;;3.08;1.80;;;6.00;99.90;;;;;;4993896;28;20035;-81
2023/11/08 07:43:58;;;;;;;3.78;1.67;;;6.10;99.90;;;;;;5002010;28;20730;-81
2023/11/08 07:46:25;;;;;;;3.75;2.40;;;6.10;99.90;;;;;;5004889;28;20098;-83
2023/11/08 07:48:55;;;;;;;5.45;2.05;;;6.10;99.90;;;;;;4990485;28;20056;-80
2023/11/08 07:51:22;;;;;;;6.38;2.60;;;6.20;99.90;;;;;;4992610;28;20367;-84
2023/11/08 07:53:49;;;;;;;6.47;2.17;;;6.30;99.90;;;;;;5006534;28;20058;-82
2023/11/08 07:56:15;;;;;;;2.33;2.13;;;6.30;99.90;;;;;;5007403;28;20552;-82
2023/11/08 07:58:41;;;;;;;4.45;1.95;;;6.30;99.90;;;;;;5003732;28;20032;-81
2023/11/08 08:01:09;;;;;;;5.43;2.30;;;6.30;99.90;;;;;;5009430;28;20042;-80
2023/11/08 08:03:35;;;;;;;4.05;2.05;;;6.30;99.90;;;;;;5003821;28;20041;-81
2023/11/08 08:06:03;;;;;;;4.53;2.15;;;6.30;99.90;;;;;;5002346;28;20030;-81
2023/11/08 08:08:33;;;;;;;4.00;2.10;;;6.30;99.90;;;;;;5005999;28;20049;-82
2023/11/08 08:10:58;;;;;;;4.68;2.20;;;6.30;99.90;;;;;;4995703;28;20312;-79
2023/11/08 08:13:25;;;;;;;3.92;2.67;;;6.30;99.90;;;;;;4998270;28;20104;-81
2023/11/08 08:15:50;;;;;;;3.22;2.25;;;6.30;99.90;;;;;;4993912;28;20026;-81
2023/11/08 08:18:17;;;;;;;5.95;2.53;;;6.30;99.90;;;;;;5007494;28;20033;-80
2023/11/08 08:20:43;;;;;;;6.47;2.70;;;6.30;99.90;;;;;;5008620;28;20052;-78
2023/11/08 08:23:09;;;;;;;3.58;2.15;;;6.40;99.90;;;;;;5005690;28;20022;-80
2023/11/08 08:25:40;;;;;;;4.07;2.25;;;6.40;99.90;;;;;;5010230;28;20030;-80
2023/11/08 08:28:06;;;;;;;5.07;2.20;;;6.40;99.90;;;;;;5007554;28;20030;-79
2023/11/08 08:30:33;;;;;;;10.68;2.25;;;6.50;99.90;;;;;;5007057;28;20443;-78
2023/11/08 08:33:00;;;;;;;5.90;2.00;;;6.50;99.90;;;;;;5005961;28;20038;-79
2023/11/08 08:35:27;;;;;;;7.43;2.65;;;6.50;99.90;;;;;;5008009;28;20052;-78
2023/11/08 08:37:52;;;;;;;9.55;1.73;;;6.40;99.90;;;;;;5006455;28;20750;-79
2023/11/08 08:40:18;;;;;;;7.45;2.22;;;6.40;99.90;;;;;;5002767;28;20038;-79
2023/11/08 08:42:44;;;;;;;3.55;2.10;;;6.40;99.90;;;;;;5010519;28;20025;-80
2023/11/08 08:45:11;;;;;;;5.97;2.05;;;6.40;99.90;;;;;;4997904;28;20096;-78
2023/11/08 08:47:37;;;;;;;6.07;2.00;;;6.40;99.90;;;;;;5002573;28;20523;-79
2023/11/08 08:50:05;;;;;;;3.78;1.63;;;6.40;99.90;;;;;;5004352;28;20034;-78
2023/11/08 08:52:31;;;;;;;3.90;2.00;;;6.50;99.90;;;;;;5001531;28;21303;-77
2023/11/08 08:54:57;;;;;;;6.75;2.38;;;6.50;99.90;;;;;;5004556;28;20026;-79
2023/11/08 08:57:22;;;;;;;4.90;2.25;;;6.60;99.90;;;;;;5004701;28;21213;-77
2023/11/08 08:59:48;;;;;;;4.68;1.92;;;6.60;99.90;;;;;;5005020;28;20121;-81
2023/11/08 09:02:14;;;;;;;5.00;1.70;;;6.70;99.90;;;;;;4999683;28;20883;-80
2023/11/08 09:04:40;;;;;;;3.75;1.58;;;6.70;99.90;;;;;;4995912;28;20030;-80
2023/11/08 09:07:05;;;;;;;6.32;2.47;;;6.80;99.90;;;;;;5003951;28;20026;-79
2023/11/08 09:09:32;;;;;;;7.38;2.40;;;6.90;99.90;;;;;;5007029;28;20128;-79
2023/11/08 09:11:58;;;;;;;5.18;2.50;;;7.00;99.90;;;;;;5003880;28;20034;-80
2023/11/08 09:14:24;;;;;;;4.40;2.03;;;7.00;99.90;;;;;;5019284;28;20072;-80
2023/11/08 09:16:50;;;;;;;3.17;2.15;;;7.10;99.90;;;;;;5004523;28;20502;-79
2023/11/08 09:19:17;;;;;;;2.17;1.80;;;7.10;99.90;;;;;;5007544;28;20028;-80
2023/11/08 09:21:43;;;;;;;5.43;1.80;;;7.20;99.90;;;;;;5007929;28;20025;-79
2023/11/08 09:24:10;;;;;;;7.18;2.90;;;7.20;99.90;;;;;;5011457;28;20036;-78
2023/11/08 09:26:37;;;;;;;5.05;1.67;;;7.30;99.90;;;;;;5012549;28;20014;-78
2023/11/08 09:29:03;;;;;;;3.88;2.00;;;7.30;99.90;;;;;;5008487;28;20605;-79
2023/11/08 09:31:29;;;;;;;5.95;1.73;;;7.30;99.90;;;;;;5005137;28;20073;-79
2023/11/08 09:34:00;;;;;;;6.35;1.67;;;7.40;99.90;;;;;;5003403;28;20105;-80
2023/11/08 09:36:26;;;;;;;3.47;1.88;;;7.40;99.90;;;;;;5001921;28;20045;-81
2023/11/08 09:38:53;;;;;;;6.53;2.17;;;7.40;99.90;;;;;;5001766;28;20039;-79
2023/11/08 09:41:21;;;;;;;4.18;1.60;;;7.50;99.90;;;;;;5000881;28;20034;-78
2023/11/08 09:43:49;;;;;;;5.43;1.85;;;7.60;99.90;;;;;;5006274;28;20049;-80
2023/11/08 09:46:16;;;;;;;1.98;1.77;;;7.70;99.90;;;;;;4998512;28;20037;-78
2023/11/08 09:48:45;;;;;;;6.07;1.95;;;7.70;99.90;;;;;;4997606;28;20029;-79
2023/11/08 09:51:14;;;;;;;3.83;1.60;;;7.70;99.90;;;;;;5002938;28;20025;-79
2023/11/08 09:53:43;;;;;;;3.67;1.63;;;7.60;99.90;;;;;;5002409;28;20038;-79
2023/11/08 09:56:12;;;;;;;2.10;1.08;;;7.60;99.90;;;;;;4992382;28;20038;-78
2023/11/08 09:58:44;;;;;;;2.28;1.45;;;7.60;99.90;;;;;;4999677;28;20037;-79
2023/11/08 10:01:18;;;;;;;4.18;1.63;;;7.60;99.90;;;;;;4987475;28;20064;-80
2023/11/08 10:03:45;;;;;;;7.32;1.58;;;7.50;99.90;;;;;;4997329;28;20077;-80
2023/11/08 10:06:11;;;;;;;4.75;1.40;;;7.50;99.90;;;;;;4995984;28;20049;-79
2023/11/08 10:08:38;;;;;;;3.97;1.65;;;7.50;99.90;;;;;;5004109;28;20041;-81
2023/11/08 10:11:10;;;;;;;3.33;1.65;;;7.50;99.90;;;;;;5006852;28;20661;-78
2023/11/08 10:13:51;;;;;;;4.78;2.00;;;7.40;99.90;;;;;;5011655;28;20034;-80
2023/11/08 10:16:18;;;;;;;8.13;1.92;;;7.40;99.90;;;;;;5011053;28;20097;-79
2023/11/08 10:19:02;;;;;;;4.03;1.90;;;7.40;99.90;;;;;;5012676;28;20101;-79
2023/11/08 10:21:30;;;;;;;3.80;1.80;;;7.40;99.90;;;;;;5009954;28;20052;-79
2023/11/08 10:24:09;;;;;;;3.53;1.90;;;7.40;99.90;;;;;;5011831;28;20065;-79
2023/11/08 10:26:36;;;;;;;2.92;1.70;;;7.40;99.90;;;;;;5011331;28;20121;-78
2023/11/08 10:29:05;;;;;;;4.82;1.92;;;7.50;99.90;;;;;;5007218;28;20546;-79
2023/11/08 10:31:37;;;;;;;3.38;1.40;;;7.50;99.90;;;;;;5006129;28;20026;-81
2023/11/08 10:34:05;;;;;;;2.97;1.70;;;7.50;99.90;;;;;;5005532;28;20109;-79
2023/11/08 10:36:32;;;;;;;4.18;1.50;;;7.50;99.90;;;;;;5004102;28;20037;-78
2023/11/08 10:38:58;;;;;;;2.13;1.63;;;7.50;99.90;;;;;;5006173;28;20444;-80
2023/11/08 10:41:24;;;;;;;4.82;1.38;;;7.40;99.90;;;;;;5006796;28;20034;-78
2023/11/08 10:44:06;;;;;;;5.00;1.80;;;7.30;99.90;;;;;;5006148;28;20037;-80
2023/11/08 10:46:32;;;;;;;3.90;1.70;;;7.30;99.90;;;;;;5007693;28;20042;-79
2023/11/08 10:49:04;;;;;;;4.53;1.70;;;7.30;99.90;;;;;;5005092;28;20049;-79
2023/11/08 10:51:33;;;;;;;8.00;2.08;;;7.30;99.90;;;;;;5006916;28;20509;-79
2023/11/08 10:53:59;;;;;;;5.10;1.70;;;7.40;99.90;;;;;;5006543;28;20029;-80
2023/11/08 10:56:27;;;;;;;4.57;1.90;;;7.40;99.90;;;;;;5005232;28;20313;-77
2023/11/08 10:58:58;;;;;;;5.97;1.77;;;7.60;99.90;;;;;;4995550;28;20056;-78
2023/11/08 11:01:28;;;;;;;9.27;2.05;;;7.70;99.90;;;;;;5001847;28;20041;-78
2023/11/08 11:04:00;;;;;;;5.85;1.80;;;7.70;99.90;;;;;;5010187;28;20494;-79
2023/11/08 11:06:27;;;;;;;3.63;2.00;;;7.90;99.90;;;;;;5002744;28;20065;-79
2023/11/08 11:08:54;;;;;;;3.03;1.70;;;8.10;99.90;;;;;;5006733;28;20037;-80
2023/11/08 11:11:21;;;;;;;3.45;1.60;;;8.20;99.90;;;;;;5014669;28;20120;-78
2023/11/08 11:13:59;;;;;;;4.95;1.95;;;8.20;99.90;;;;;;5009354;28;20044;-79
2023/11/08 11:16:34;;;;;;;4.72;1.50;;;8.20;99.90;;;;;;5009402;28;20061;-79
2023/11/08 11:19:11;;;;;;;3.00;1.50;;;8.20;99.90;;;;;;5007650;28;20042;-79
2023/11/08 11:21:43;;;;;;;9.48;1.60;;;8.20;99.90;;;;;;5009967;28;20043;-79
2023/11/08 11:24:39;;;;;;;1.73;1.30;;;8.20;99.90;;;;;;5003410;28;20041;-77
2023/11/08 11:27:06;;;;;;;5.72;1.65;;;8.20;99.90;;;;;;4999786;28;20045;-77
2023/11/08 11:29:32;;;;;;;1.42;1.23;;;8.20;99.90;;;;;;4988474;28;20018;-77
2023/11/08 11:32:35;;;;;;;1.75;1.63;;;8.20;99.90;;;;;;4997341;28;20104;-77
2023/11/08 11:35:03;;;;;;;6.47;1.77;;;8.20;99.90;;;;;;5007369;28;20076;-79
2023/11/08 11:37:29;;;;;;;4.03;1.52;;;8.10;99.90;;;;;;5008427;28;20045;-78
2023/11/08 11:39:55;;;;;;;3.58;1.20;;;8.10;99.90;;;;;;5009085;28;20094;-79
2023/11/08 11:42:24;;;;;;;5.00;1.55;;;8.20;99.90;;;;;;5007877;28;20120;-78
2023/11/08 11:44:57;;;;;;;3.10;1.13;;;8.20;99.90;;;;;;5010538;28;20053;-79
2023/11/08 11:47:27;;;;;;;4.68;1.27;;;8.20;99.90;;;;;;5006385;28;20056;-78
2023/11/08 11:49:59;;;;;;;1.92;0.98;;;8.20;99.90;;;;;;5011885;28;20544;-79
2023/11/08 11:52:25;;;;;;;5.40;1.20;;;8.20;99.90;;;;;;5012152;28;20038;-78
2023/11/08 11:54:52;;;;;;;4.55;1.30;;;8.30;99.90;;;;;;5008883;28;20152;-78
2023/11/08 11:57:22;;;;;;;2.05;0.98;;;8.40;99.90;;;;;;5002741;28;20048;-79
2023/11/08 12:00:10;;;;;;;5.22;1.35;;;8.50;99.90;;;;;;5006013;28;20026;-78
2023/11/08 12:02:54;;;;;;;2.13;1.45;;;8.40;99.90;;;;;;5001994;28;20141;-77
2023/11/08 12:05:21;;;;;;;3.25;1.17;;;8.40;99.90;;;;;;4998032;28;20042;-77
2023/11/08 12:07:48;;;;;;;5.32;0.93;;;8.30;99.90;;;;;;4997078;28;20661;-78
2023/11/08 12:10:18;;;;;;;3.75;1.20;;;8.30;99.90;;;;;;4996149;28;20422;-77
2023/11/08 12:12:44;;;;;;;1.30;1.00;;;8.30;99.90;;;;;;4994401;28;20052;-77
2023/11/08 12:15:15;;;;;;;4.65;1.13;;;8.30;99.90;;;;;;4995586;28;20482;-77
2023/11/08 12:17:50;;;;;;;2.58;1.05;;;8.30;99.90;;;;;;4995597;28;20058;-78
2023/11/08 12:20:20;;;;;;;;;;;8.40;99.90;;;;;;4996143;28;20114;-76
2023/11/08 12:22:51;;;;;;;5.22;1.23;;;8.40;99.90;;;;;;4996634;28;19913;-76
2023/11/08 12:25:19;;;;;;;3.05;0.85;;;8.40;99.90;;;;;;4996840;28;20041;-77
2023/11/08 12:27:45;;;;;;;3.42;0.55;;;8.40;99.90;;;;;;4996848;28;20021;-78
2023/11/08 12:30:11;;;;;;;4.35;1.15;;;8.50;99.90;;;;;;5004403;28;20026;-78
2023/11/08 12:32:37;;;;;;;2.72;0.98;;;8.50;99.90;;;;;;5002602;28;20518;-77
2023/11/08 12:35:04;;;;;;;3.33;1.27;;;8.60;99.90;;;;;;5001555;28;20038;-78
2023/11/08 12:37:30;;;;;;;6.28;1.10;;;8.60;99.90;;;;;;5005574;28;20694;-79
2023/11/08 12:40:22;;;;;;;3.17;0.98;;;8.60;99.90;;;;;;5008785;28;20109;-78
2023/11/08 12:42:49;;;;;;;5.60;1.20;;;8.60;99.90;;;;;;5005538;28;20064;-77
2023/11/08 12:45:31;;;;;;;3.17;0.82;;;8.60;99.90;;;;;;5002810;28;20030;-78
2023/11/08 12:48:07;;;;;;;1.50;1.05;;;8.60;99.90;;;;;;5001443;28;20037;-77
2023/11/08 12:50:34;;;;;;;2.88;0.80;;;8.60;99.90;;;;;;5002100;28;20066;-78
2023/11/08 12:53:03;;;;;;;3.75;0.88;;;8.60;99.90;;;;;;4996538;28;20088;-78
2023/11/08 12:55:39;;;;;;;1.23;0.70;;;8.60;99.90;;;;;;5000310;28;20030;-77
2023/11/08 12:58:38;;;;;;;2.60;0.70;;;8.60;99.90;;;;;;5007217;28;20065;-77
2023/11/08 13:01:04;;;;;;;3.15;0.80;;;8.60;99.90;;;;;;4990130;28;20127;-77